createdAt,value
2022-07-31T00:00:44.294Z,0
2022-07-31T00:01:47.008Z,0
2022-07-31T00:02:50.170Z,0
2022-07-31T00:03:52.257Z,0
2022-07-31T00:04:55.327Z,0
2022-07-31T00:05:58.198Z,0
2022-07-31T00:07:03.564Z,0
2022-07-31T00:08:08.418Z,0
2022-07-31T00:09:45.484Z,0
2022-07-31T00:10:58.092Z,0
2022-07-31T00:12:00.985Z,0
2022-07-31T00:13:04.251Z,0
2022-07-31T00:14:06.640Z,0
2022-07-31T00:15:09.479Z,0
2022-07-31T00:16:11.773Z,0
2022-07-31T00:17:14.065Z,0
2022-07-31T00:18:16.973Z,0
2022-07-31T00:19:19.381Z,0
2022-07-31T00:20:22.293Z,0
2022-07-31T00:21:25.795Z,0
2022-07-31T00:22:29.278Z,0
2022-07-31T00:23:32.185Z,0
2022-07-31T00:24:35.153Z,0
2022-07-31T00:25:37.437Z,0
2022-07-31T00:26:41.568Z,0
2022-07-31T00:27:44.423Z,0
2022-07-31T00:28:47.149Z,0
2022-07-31T00:29:50.003Z,0
2022-07-31T00:30:52.650Z,0
2022-07-31T00:31:55.354Z,0
2022-07-31T00:32:57.919Z,0
2022-07-31T00:34:01.141Z,0
2022-07-31T00:35:03.504Z,0
2022-07-31T00:36:06.167Z,0
2022-07-31T00:37:09.075Z,0
2022-07-31T00:38:27.720Z,0
2022-07-31T00:39:32.384Z,0
2022-07-31T00:40:34.741Z,0
2022-07-31T00:41:37.087Z,0
2022-07-31T00:42:39.784Z,0
2022-07-31T00:43:42.720Z,0
2022-07-31T00:44:47.741Z,0
2022-07-31T00:45:56.282Z,0
2022-07-31T00:47:02.124Z,0
2022-07-31T00:48:08.730Z,0
2022-07-31T00:49:13.818Z,0
2022-07-31T00:50:17.287Z,0
2022-07-31T00:51:19.575Z,0
2022-07-31T00:52:21.911Z,0
2022-07-31T00:53:23.997Z,0
2022-07-31T00:54:26.345Z,0
2022-07-31T00:55:29.478Z,0
2022-07-31T00:56:54.393Z,0
2022-07-31T00:57:57.293Z,0
2022-07-31T00:59:00.172Z,0
2022-07-31T01:00:03.407Z,0
2022-07-31T01:01:06.344Z,0
2022-07-31T01:02:08.811Z,0
2022-07-31T01:03:11.179Z,0
2022-07-31T01:04:15.486Z,0
2022-07-31T01:05:19.062Z,0
2022-07-31T01:06:22.178Z,0
2022-07-31T01:07:24.604Z,0
2022-07-31T01:08:26.951Z,0
2022-07-31T01:09:29.520Z,0
2022-07-31T01:10:32.368Z,0
2022-07-31T01:11:34.938Z,0
2022-07-31T01:12:40.704Z,0
2022-07-31T01:13:43.829Z,0
2022-07-31T01:14:47.288Z,0
2022-07-31T01:15:50.196Z,0
2022-07-31T01:16:53.082Z,0
2022-07-31T01:17:55.743Z,0
2022-07-31T01:18:58.348Z,0
2022-07-31T01:20:00.718Z,0
2022-07-31T01:21:03.317Z,0
2022-07-31T01:22:06.138Z,0
2022-07-31T01:23:37.238Z,0
2022-07-31T01:24:39.875Z,0
2022-07-31T01:25:42.851Z,0
2022-07-31T01:26:45.690Z,0
2022-07-31T01:27:49.121Z,0
2022-07-31T01:28:52.655Z,0
2022-07-31T01:29:54.949Z,0
2022-07-31T01:31:10.953Z,0
2022-07-31T01:32:30.538Z,0
2022-07-31T01:33:33.176Z,0
2022-07-31T01:34:38.803Z,0
2022-07-31T01:35:41.714Z,0
2022-07-31T01:36:43.849Z,0
2022-07-31T01:37:46.492Z,0
2022-07-31T01:38:49.193Z,0
2022-07-31T01:39:52.315Z,0
2022-07-31T01:40:55.518Z,0
2022-07-31T01:41:58.251Z,0
2022-07-31T01:43:01.526Z,0
2022-07-31T01:44:03.938Z,0
2022-07-31T01:45:06.719Z,0
2022-07-31T01:46:12.435Z,0
2022-07-31T01:47:15.128Z,0
2022-07-31T01:48:18.045Z,0
2022-07-31T01:49:20.534Z,0
2022-07-31T01:50:42.115Z,0
2022-07-31T01:51:46.518Z,0
2022-07-31T01:52:49.964Z,0
2022-07-31T01:53:52.806Z,0
2022-07-31T01:54:54.960Z,0
2022-07-31T01:56:03.096Z,0
2022-07-31T01:57:06.777Z,0
2022-07-31T01:58:09.622Z,0
2022-07-31T01:59:15.614Z,0
2022-07-31T02:00:34.055Z,0
2022-07-31T02:01:41.218Z,0
2022-07-31T02:02:47.627Z,0
2022-07-31T02:03:56.249Z,0
2022-07-31T02:05:03.627Z,0
2022-07-31T02:06:06.409Z,0
2022-07-31T02:07:08.774Z,0
2022-07-31T02:08:13.828Z,0
2022-07-31T02:09:16.171Z,0
2022-07-31T02:10:18.861Z,0
2022-07-31T02:11:21.776Z,0
2022-07-31T02:12:32.355Z,0
2022-07-31T02:13:37.632Z,0
2022-07-31T02:14:40.464Z,0
2022-07-31T02:15:42.794Z,0
2022-07-31T02:16:45.142Z,0
2022-07-31T02:17:47.823Z,0
2022-07-31T02:18:50.182Z,0
2022-07-31T02:19:55.364Z,0
2022-07-31T02:21:03.519Z,0
2022-07-31T02:22:07.079Z,0
2022-07-31T02:23:08.877Z,0
2022-07-31T02:24:12.067Z,0
2022-07-31T02:25:15.026Z,0
2022-07-31T02:26:17.871Z,0
2022-07-31T02:27:54.513Z,0
2022-07-31T02:29:01.710Z,0
2022-07-31T02:30:04.692Z,0
2022-07-31T02:31:07.876Z,0
2022-07-31T02:32:10.676Z,0
2022-07-31T02:33:14.644Z,0
2022-07-31T02:34:17.812Z,0
2022-07-31T02:35:21.545Z,0
2022-07-31T02:36:24.314Z,0
2022-07-31T02:37:26.981Z,0
2022-07-31T02:38:29.021Z,0
2022-07-31T02:39:31.372Z,0
2022-07-31T02:40:33.715Z,0
2022-07-31T02:41:36.618Z,0
2022-07-31T02:42:39.582Z,0
2022-07-31T02:43:42.495Z,0
2022-07-31T02:44:44.790Z,0
2022-07-31T02:45:47.420Z,0
2022-07-31T02:46:49.825Z,0
2022-07-31T02:47:52.526Z,0
2022-07-31T02:48:55.169Z,4
2022-07-31T02:49:57.919Z,4
2022-07-31T02:51:01.034Z,4
2022-07-31T02:52:03.850Z,0
2022-07-31T02:53:08.749Z,0
2022-07-31T02:54:11.947Z,0
2022-07-31T02:55:14.293Z,4
2022-07-31T02:56:17.825Z,4
2022-07-31T02:57:19.922Z,4
2022-07-31T02:58:23.000Z,4
2022-07-31T02:59:25.092Z,4
2022-07-31T03:00:27.809Z,4
2022-07-31T03:01:31.315Z,8
2022-07-31T03:02:34.539Z,4
2022-07-31T03:03:40.605Z,8
2022-07-31T03:04:43.237Z,8
2022-07-31T03:05:45.103Z,8
2022-07-31T03:06:48.016Z,12
2022-07-31T03:07:51.477Z,12
2022-07-31T03:08:53.774Z,12
2022-07-31T03:09:56.132Z,16
2022-07-31T03:10:59.373Z,16
2022-07-31T03:12:01.994Z,20
2022-07-31T03:13:08.879Z,20
2022-07-31T03:14:11.220Z,20
2022-07-31T03:15:14.381Z,24
2022-07-31T03:16:17.312Z,28
2022-07-31T03:17:19.934Z,28
2022-07-31T03:18:22.619Z,32
2022-07-31T03:19:25.193Z,36
2022-07-31T03:20:27.826Z,36
2022-07-31T03:21:30.678Z,40
2022-07-31T03:22:33.308Z,44
2022-07-31T03:23:36.063Z,52
2022-07-31T03:24:38.523Z,60
2022-07-31T03:25:41.089Z,64
2022-07-31T03:26:43.726Z,76
2022-07-31T03:27:46.352Z,80
2022-07-31T03:28:59.185Z,88
2022-07-31T03:30:02.078Z,96
2022-07-31T03:31:04.342Z,104
2022-07-31T03:32:07.311Z,116
2022-07-31T03:33:09.726Z,132
2022-07-31T03:34:12.621Z,140
2022-07-31T03:35:15.496Z,156
2022-07-31T03:36:18.106Z,172
2022-07-31T03:37:21.290Z,192
2022-07-31T03:38:32.832Z,216
2022-07-31T03:39:52.442Z,256
2022-07-31T03:40:55.137Z,288
2022-07-31T03:41:57.764Z,324
2022-07-31T03:43:00.326Z,364
2022-07-31T03:44:03.243Z,408
2022-07-31T03:45:05.753Z,460
2022-07-31T03:46:08.435Z,504
2022-07-31T03:47:11.832Z,552
2022-07-31T03:48:18.423Z,600
2022-07-31T03:49:22.014Z,656
2022-07-31T03:50:25.058Z,708
2022-07-31T03:51:27.764Z,764
2022-07-31T03:52:30.684Z,824
2022-07-31T03:53:33.322Z,880
2022-07-31T03:54:36.514Z,932
2022-07-31T03:55:39.184Z,976
2022-07-31T03:56:45.015Z,1008
2022-07-31T03:57:50.085Z,1048
2022-07-31T03:58:56.409Z,1092
2022-07-31T04:00:04.926Z,1152
2022-07-31T04:01:20.627Z,1240
2022-07-31T04:02:25.487Z,1320
2022-07-31T04:03:28.946Z,1400
2022-07-31T04:04:31.454Z,1484
2022-07-31T04:05:34.309Z,1576
2022-07-31T04:06:37.212Z,1668
2022-07-31T04:07:41.918Z,1748
2022-07-31T04:08:43.995Z,1832
2022-07-31T04:09:46.843Z,1904
2022-07-31T04:10:49.406Z,1964
2022-07-31T04:11:52.311Z,2024
2022-07-31T04:12:54.873Z,2080
2022-07-31T04:13:58.049Z,2132
2022-07-31T04:15:00.931Z,2192
2022-07-31T04:16:03.275Z,2252
2022-07-31T04:17:05.682Z,2288
2022-07-31T04:18:08.301Z,2320
2022-07-31T04:19:10.941Z,2336
2022-07-31T04:20:13.849Z,2336
2022-07-31T04:21:16.090Z,2336
2022-07-31T04:22:18.774Z,2344
2022-07-31T04:23:21.955Z,2352
2022-07-31T04:24:35.415Z,2364
2022-07-31T04:25:37.782Z,2380
2022-07-31T04:26:40.701Z,2384
2022-07-31T04:27:48.132Z,2380
2022-07-31T04:28:51.884Z,2360
2022-07-31T04:29:54.774Z,2348
2022-07-31T04:30:57.945Z,2340
2022-07-31T04:32:00.733Z,2344
2022-07-31T04:33:05.751Z,2368
2022-07-31T04:34:08.104Z,2400
2022-07-31T04:35:11.346Z,2444
2022-07-31T04:36:15.177Z,2480
2022-07-31T04:37:33.602Z,2520
2022-07-31T04:38:36.717Z,2544
2022-07-31T04:39:39.697Z,2560
2022-07-31T04:40:42.878Z,2580
2022-07-31T04:41:46.298Z,2604
2022-07-31T04:42:49.141Z,2632
2022-07-31T04:43:51.771Z,2672
2022-07-31T04:44:54.728Z,2716
2022-07-31T04:45:56.742Z,2744
2022-07-31T04:46:59.709Z,2776
2022-07-31T04:48:02.049Z,2792
2022-07-31T04:49:04.545Z,2788
2022-07-31T04:50:07.368Z,2776
2022-07-31T04:51:10.289Z,2756
2022-07-31T04:52:17.591Z,2732
2022-07-31T04:53:20.541Z,2728
2022-07-31T04:54:23.290Z,2740
2022-07-31T04:55:26.158Z,2756
2022-07-31T04:56:28.229Z,2768
2022-07-31T04:57:31.476Z,2768
2022-07-31T04:58:34.652Z,2784
2022-07-31T04:59:58.345Z,2792
2022-07-31T05:01:03.976Z,2816
2022-07-31T05:02:07.317Z,2836
2022-07-31T05:03:13.723Z,2872
2022-07-31T05:04:16.350Z,2904
2022-07-31T05:05:19.409Z,2932
2022-07-31T05:06:21.751Z,2964
2022-07-31T05:07:25.837Z,3004
2022-07-31T05:08:31.401Z,3052
2022-07-31T05:09:33.827Z,3104
2022-07-31T05:10:39.126Z,3152
2022-07-31T05:11:42.218Z,3224
2022-07-31T05:12:45.405Z,3288
2022-07-31T05:13:48.667Z,3352
2022-07-31T05:14:51.581Z,3428
2022-07-31T05:15:53.651Z,3500
2022-07-31T05:16:55.382Z,3560
2022-07-31T05:17:58.564Z,3624
2022-07-31T05:19:01.471Z,3680
2022-07-31T05:20:04.967Z,3760
2022-07-31T05:21:07.313Z,3880
2022-07-31T05:22:10.609Z,4020
2022-07-31T05:23:15.383Z,4152
2022-07-31T05:24:17.781Z,4216
2022-07-31T05:25:37.191Z,4040
2022-07-31T05:26:40.399Z,3932
2022-07-31T05:27:43.526Z,4056
2022-07-31T05:28:56.514Z,4016
2022-07-31T05:30:00.561Z,3664
2022-07-31T05:31:03.414Z,3488
2022-07-31T05:32:05.836Z,3456
2022-07-31T05:33:08.743Z,3500
2022-07-31T05:34:18.531Z,3608
2022-07-31T05:35:21.377Z,3732
2022-07-31T05:36:23.715Z,3892
2022-07-31T05:37:26.619Z,4160
2022-07-31T05:38:29.176Z,4584
2022-07-31T05:39:31.601Z,4492
2022-07-31T05:40:34.247Z,4764
2022-07-31T05:41:37.142Z,4828
2022-07-31T05:42:41.737Z,5064
2022-07-31T05:43:44.825Z,5296
2022-07-31T05:44:47.374Z,5392
2022-07-31T05:45:50.778Z,5328
2022-07-31T05:47:55.600Z,5880
2022-07-31T05:48:58.588Z,5960
2022-07-31T05:50:01.488Z,6028
2022-07-31T05:51:06.429Z,6112
2022-07-31T05:52:08.765Z,6040
2022-07-31T05:53:11.405Z,6096
2022-07-31T05:54:14.401Z,6184
2022-07-31T05:55:16.813Z,6328
2022-07-31T05:56:19.438Z,6464
2022-07-31T05:57:26.516Z,6876
2022-07-31T05:58:37.375Z,7348
2022-07-31T05:59:40.270Z,7604
2022-07-31T06:00:42.920Z,7564
2022-07-31T06:01:45.343Z,7660
2022-07-31T06:02:48.240Z,7392
2022-07-31T06:03:52.550Z,7628
2022-07-31T06:04:55.529Z,7568
2022-07-31T06:05:58.441Z,7380
2022-07-31T06:07:01.076Z,7092
2022-07-31T06:08:05.319Z,7228
2022-07-31T06:09:10.870Z,7480
2022-07-31T06:10:13.735Z,7548
2022-07-31T06:11:16.429Z,7600
2022-07-31T06:12:18.778Z,7692
2022-07-31T06:13:21.190Z,7888
2022-07-31T06:14:23.817Z,7904
2022-07-31T06:15:27.271Z,7900
2022-07-31T06:16:42.997Z,7856
2022-07-31T06:17:46.127Z,7748
2022-07-31T06:18:48.559Z,7716
2022-07-31T06:19:50.904Z,7660
2022-07-31T06:20:53.829Z,7584
2022-07-31T06:21:56.732Z,7552
2022-07-31T06:22:59.287Z,7572
2022-07-31T06:24:02.267Z,7536
2022-07-31T06:25:08.660Z,7536
2022-07-31T06:26:16.914Z,7500
2022-07-31T06:27:33.710Z,7532
2022-07-31T06:28:48.218Z,7488
2022-07-31T06:29:52.264Z,7544
2022-07-31T06:30:54.889Z,7596
2022-07-31T06:31:57.776Z,7644
2022-07-31T06:33:08.012Z,7664
2022-07-31T06:34:39.908Z,7708
2022-07-31T06:35:43.108Z,7724
2022-07-31T06:36:46.172Z,7688
2022-07-31T06:37:49.651Z,7760
2022-07-31T06:38:52.334Z,7984
2022-07-31T06:39:56.196Z,8264
2022-07-31T06:41:01.293Z,8520
2022-07-31T06:42:04.119Z,8640
2022-07-31T06:43:08.260Z,8756
2022-07-31T06:44:10.893Z,8780
2022-07-31T06:45:21.598Z,8784
2022-07-31T06:46:56.719Z,8584
2022-07-31T06:47:59.360Z,8276
2022-07-31T06:49:05.615Z,7972
2022-07-31T06:50:11.904Z,7732
2022-07-31T06:51:30.160Z,7728
2022-07-31T06:52:34.529Z,7756
2022-07-31T06:53:36.876Z,7824
2022-07-31T06:54:39.727Z,7800
2022-07-31T06:55:42.598Z,7800
2022-07-31T06:56:47.978Z,7700
2022-07-31T06:57:50.834Z,7948
2022-07-31T06:58:54.116Z,8200
2022-07-31T06:59:56.742Z,8468
2022-07-31T07:00:59.490Z,8684
2022-07-31T07:02:02.827Z,8768
2022-07-31T07:03:09.315Z,8760
2022-07-31T07:04:12.510Z,8740
2022-07-31T07:05:15.632Z,8532
2022-07-31T07:06:17.704Z,8800
2022-07-31T07:07:20.892Z,9016
2022-07-31T07:08:22.979Z,8532
2022-07-31T07:09:25.947Z,8812
2022-07-31T07:10:28.581Z,8764
2022-07-31T07:11:31.283Z,9136
2022-07-31T07:12:33.845Z,9116
2022-07-31T07:13:45.438Z,9008
2022-07-31T07:14:50.044Z,8896
2022-07-31T07:15:52.697Z,8884
2022-07-31T07:16:55.330Z,8984
2022-07-31T07:17:58.740Z,9204
2022-07-31T07:19:00.693Z,9440
2022-07-31T07:20:03.882Z,9712
2022-07-31T07:21:07.099Z,9808
2022-07-31T07:22:11.129Z,9928
2022-07-31T07:23:13.488Z,9884
2022-07-31T07:24:16.441Z,9972
2022-07-31T07:25:19.911Z,10024
2022-07-31T07:26:22.823Z,10124
2022-07-31T07:27:25.726Z,10356
2022-07-31T07:28:30.302Z,10720
2022-07-31T07:29:34.496Z,11344
2022-07-31T07:30:37.403Z,11608
2022-07-31T07:31:40.041Z,11688
2022-07-31T07:32:42.672Z,11652
2022-07-31T07:33:44.955Z,11592
2022-07-31T07:34:47.861Z,11572
2022-07-31T07:36:03.633Z,11580
2022-07-31T07:37:06.553Z,11568
2022-07-31T07:38:09.443Z,11688
2022-07-31T07:39:15.807Z,12780
2022-07-31T07:40:18.163Z,13060
2022-07-31T07:41:20.731Z,11880
2022-07-31T07:42:23.076Z,11656
2022-07-31T07:43:25.492Z,11572
2022-07-31T07:44:28.063Z,11528
2022-07-31T07:45:31.041Z,11228
2022-07-31T07:46:34.520Z,11052
2022-07-31T07:47:53.552Z,10972
2022-07-31T07:49:09.380Z,10860
2022-07-31T07:50:12.383Z,10796
2022-07-31T07:51:15.569Z,10728
2022-07-31T07:52:18.207Z,10616
2022-07-31T07:53:21.354Z,10596
2022-07-31T07:54:24.305Z,10636
2022-07-31T07:55:26.710Z,10748
2022-07-31T07:56:39.694Z,10756
2022-07-31T07:57:42.657Z,10688
2022-07-31T07:58:45.854Z,10644
2022-07-31T07:59:47.869Z,10532
2022-07-31T08:00:49.801Z,10488
2022-07-31T08:01:53.408Z,10496
2022-07-31T08:03:03.065Z,10532
2022-07-31T08:04:54.533Z,10528
2022-07-31T08:05:59.061Z,10604
2022-07-31T08:07:01.275Z,10676
2022-07-31T08:08:03.601Z,10732
2022-07-31T08:09:06.205Z,10772
2022-07-31T08:10:09.364Z,10800
2022-07-31T08:11:17.182Z,10856
2022-07-31T08:12:20.285Z,10900
2022-07-31T08:13:23.409Z,10972
2022-07-31T08:14:26.611Z,11064
2022-07-31T08:15:28.832Z,11088
2022-07-31T08:16:31.469Z,11112
2022-07-31T08:17:34.377Z,11096
2022-07-31T08:18:37.290Z,11064
2022-07-31T08:19:40.480Z,11016
2022-07-31T08:20:43.052Z,11072
2022-07-31T08:21:46.556Z,11168
2022-07-31T08:22:48.403Z,11288
2022-07-31T08:23:51.017Z,11360
2022-07-31T08:24:54.286Z,11412
2022-07-31T08:25:57.132Z,11480
2022-07-31T08:27:01.626Z,11552
2022-07-31T08:28:19.392Z,11644
2022-07-31T08:29:28.897Z,11776
2022-07-31T08:30:32.002Z,11976
2022-07-31T08:31:34.915Z,12288
2022-07-31T08:32:37.884Z,12708
2022-07-31T08:33:40.791Z,13152
2022-07-31T08:34:43.759Z,13812
2022-07-31T08:35:50.592Z,14736
2022-07-31T08:36:53.835Z,16312
2022-07-31T08:38:02.960Z,18416
2022-07-31T08:39:07.751Z,21056
2022-07-31T08:40:23.321Z,22784
2022-07-31T08:41:26.239Z,23584
2022-07-31T08:42:28.861Z,23872
2022-07-31T08:44:01.242Z,24288
2022-07-31T08:45:07.339Z,26080
2022-07-31T08:46:10.513Z,27584
2022-07-31T08:47:12.852Z,29440
2022-07-31T08:48:15.784Z,30656
2022-07-31T08:49:18.364Z,30912
2022-07-31T08:50:21.932Z,31840
2022-07-31T08:51:27.341Z,33152
2022-07-31T08:52:29.416Z,33536
2022-07-31T08:53:32.881Z,33280
2022-07-31T08:54:35.227Z,33504
2022-07-31T08:55:55.798Z,36576
2022-07-31T08:57:01.357Z,52032
2022-07-31T08:58:05.528Z,66784
2022-07-31T08:59:08.717Z,61664
2022-07-31T09:00:10.891Z,86048
2022-07-31T09:01:13.795Z,123712
2022-07-31T09:02:17.060Z,109088
2022-07-31T09:03:19.971Z,123776
2022-07-31T09:04:22.879Z,114432
2022-07-31T09:05:25.567Z,125216
2022-07-31T09:06:44.390Z,131232
2022-07-31T09:07:47.032Z,132192
2022-07-31T09:08:49.699Z,129760
2022-07-31T09:09:52.676Z,130496
2022-07-31T09:10:55.600Z,133440
2022-07-31T09:11:58.794Z,135488
2022-07-31T09:13:01.431Z,138880
2022-07-31T09:14:03.755Z,141952
2022-07-31T09:15:06.595Z,143968
2022-07-31T09:16:08.777Z,124928
2022-07-31T09:17:11.624Z,114272
2022-07-31T09:18:14.318Z,80416
2022-07-31T09:19:51.577Z,119456
2022-07-31T09:20:57.698Z,90400
2022-07-31T09:22:04.356Z,88576
2022-07-31T09:23:14.078Z,99744
2022-07-31T09:24:16.410Z,89760
2022-07-31T09:25:18.472Z,76352
2022-07-31T09:26:20.887Z,56768
2022-07-31T09:27:23.824Z,52352
2022-07-31T09:28:26.473Z,52256
2022-07-31T09:29:29.381Z,56608
2022-07-31T09:30:32.577Z,55552
2022-07-31T09:31:34.934Z,52832
2022-07-31T09:32:37.555Z,52608
2022-07-31T09:33:45.290Z,48032
2022-07-31T09:34:49.026Z,48320
2022-07-31T09:35:51.885Z,48096
2022-07-31T09:36:54.866Z,47872
2022-07-31T09:37:57.432Z,48640
2022-07-31T09:39:04.321Z,47872
2022-07-31T09:40:13.529Z,48320
2022-07-31T09:41:53.736Z,62464
2022-07-31T09:43:23.074Z,47808
2022-07-31T09:44:26.110Z,66144
2022-07-31T09:45:29.054Z,115776
2022-07-31T09:46:31.476Z,82880
2022-07-31T09:47:34.384Z,120704
2022-07-31T09:48:36.964Z,143808
2022-07-31T09:49:46.002Z,132832
2022-07-31T09:50:48.631Z,129184
2022-07-31T09:51:51.050Z,125216
2022-07-31T09:52:53.352Z,130624
2022-07-31T09:53:56.570Z,138560
2022-07-31T09:54:59.240Z,143712
2022-07-31T09:56:01.910Z,137504
2022-07-31T09:57:04.458Z,115552
2022-07-31T09:58:09.073Z,107392
2022-07-31T09:59:12.013Z,100896
2022-07-31T10:00:17.240Z,113056
2022-07-31T10:01:20.282Z,95104
2022-07-31T10:02:23.510Z,78048
2022-07-31T10:03:25.799Z,82944
2022-07-31T10:04:27.862Z,68736
2022-07-31T10:05:30.775Z,73600
2022-07-31T10:06:33.428Z,67968
2022-07-31T10:07:35.816Z,60672
2022-07-31T10:08:38.445Z,100416
2022-07-31T10:09:41.086Z,65792
2022-07-31T10:10:43.498Z,67072
2022-07-31T10:11:46.461Z,71168
2022-07-31T10:12:49.387Z,64192
2022-07-31T10:13:51.179Z,53600
2022-07-31T10:14:53.864Z,50464
2022-07-31T10:15:56.768Z,46240
2022-07-31T10:16:59.655Z,51648
2022-07-31T10:18:03.455Z,50400
2022-07-31T10:19:06.093Z,64736
2022-07-31T10:20:08.940Z,54464
2022-07-31T10:21:11.787Z,57536
2022-07-31T10:22:14.687Z,46656
2022-07-31T10:23:17.881Z,45312
2022-07-31T10:24:22.870Z,60480
2022-07-31T10:25:33.806Z,47072
2022-07-31T10:26:58.924Z,46080
2022-07-31T10:28:14.909Z,47104
2022-07-31T10:29:16.962Z,59648
2022-07-31T10:30:19.099Z,65696
2022-07-31T10:31:30.610Z,61888
2022-07-31T10:32:33.577Z,57536
2022-07-31T10:33:44.624Z,64576
2022-07-31T10:34:48.047Z,56416
2022-07-31T10:35:55.815Z,61088
2022-07-31T10:36:58.323Z,74688
2022-07-31T10:38:00.949Z,69088
2022-07-31T10:39:03.253Z,71872
2022-07-31T10:40:05.944Z,65856
2022-07-31T10:41:09.132Z,67648
2022-07-31T10:42:11.427Z,75232
2022-07-31T10:43:13.825Z,99520
2022-07-31T10:44:16.729Z,88448
2022-07-31T10:45:19.012Z,81792
2022-07-31T10:46:21.315Z,77184
2022-07-31T10:47:24.501Z,70592
2022-07-31T10:48:27.394Z,65472
2022-07-31T10:49:30.333Z,64928
2022-07-31T10:50:33.559Z,62720
2022-07-31T10:51:35.897Z,64960
2022-07-31T10:52:38.743Z,64160
2022-07-31T10:53:50.764Z,74368
2022-07-31T10:55:01.708Z,60704
2022-07-31T10:56:04.795Z,51136
2022-07-31T10:57:07.949Z,47424
2022-07-31T10:58:11.230Z,52928
2022-07-31T10:59:14.145Z,64608
2022-07-31T11:00:16.784Z,79136
2022-07-31T11:01:19.475Z,84352
2022-07-31T11:02:22.516Z,107744
2022-07-31T11:03:25.418Z,78560
2022-07-31T11:04:28.259Z,66880
2022-07-31T11:05:30.901Z,80160
2022-07-31T11:07:06.342Z,102816
2022-07-31T11:08:09.663Z,111008
2022-07-31T11:09:11.673Z,111808
2022-07-31T11:10:13.969Z,102784
2022-07-31T11:11:16.548Z,95040
2022-07-31T11:12:19.680Z,88096
2022-07-31T11:13:22.535Z,95360
2022-07-31T11:14:39.920Z,82400
2022-07-31T11:15:42.577Z,87328
2022-07-31T11:16:45.746Z,104160
2022-07-31T11:18:16.156Z,96032
2022-07-31T11:19:36.532Z,95488
2022-07-31T11:20:44.002Z,109664
2022-07-31T11:21:46.649Z,95136
2022-07-31T11:22:48.665Z,89568
2022-07-31T11:23:55.737Z,89888
2022-07-31T11:25:13.684Z,76352
2022-07-31T11:26:16.046Z,77600
2022-07-31T11:27:44.329Z,78656
2022-07-31T11:28:46.901Z,74272
2022-07-31T11:29:58.506Z,71616
2022-07-31T11:31:15.776Z,64416
2022-07-31T11:32:23.016Z,71552
2022-07-31T11:33:28.606Z,69632
2022-07-31T11:34:45.574Z,60544
2022-07-31T11:35:48.191Z,62176
2022-07-31T11:36:51.798Z,62592
2022-07-31T11:37:57.252Z,80416
2022-07-31T11:39:04.343Z,56480
2022-07-31T11:40:09.226Z,57920
2022-07-31T11:41:16.335Z,56384
2022-07-31T11:42:26.616Z,57280
2022-07-31T11:43:38.656Z,59840
2022-07-31T11:44:41.557Z,58336
2022-07-31T11:45:44.195Z,61344
2022-07-31T11:46:51.933Z,61088
2022-07-31T11:48:10.610Z,62304
2022-07-31T11:49:21.475Z,58336
2022-07-31T11:50:51.979Z,59744
2022-07-31T11:51:54.904Z,63424
2022-07-31T11:52:57.483Z,66176
2022-07-31T11:54:00.149Z,65408
2022-07-31T11:55:06.807Z,68480
2022-07-31T11:56:12.393Z,85152
2022-07-31T11:57:14.185Z,89152
2022-07-31T11:58:17.019Z,84320
2022-07-31T11:59:44.947Z,88128
2022-07-31T12:00:56.847Z,80480
2022-07-31T12:01:58.904Z,70336
2022-07-31T12:03:01.767Z,67328
2022-07-31T12:04:06.286Z,61600
2022-07-31T12:05:11.498Z,62432
2022-07-31T12:06:14.123Z,64576
2022-07-31T12:07:17.687Z,70208
2022-07-31T12:08:19.750Z,75392
2022-07-31T12:10:00.090Z,77088
2022-07-31T12:11:08.114Z,71104
2022-07-31T12:12:09.908Z,73280
2022-07-31T12:13:15.859Z,83104
2022-07-31T12:14:18.860Z,93024
2022-07-31T12:15:21.502Z,89024
2022-07-31T12:16:24.130Z,79488
2022-07-31T12:17:26.767Z,86912
2022-07-31T12:18:29.116Z,80864
2022-07-31T12:19:31.814Z,79552
2022-07-31T12:20:40.698Z,56096
2022-07-31T12:21:43.268Z,49344
2022-07-31T12:22:45.669Z,48288
2022-07-31T12:23:48.508Z,47424
2022-07-31T12:24:51.213Z,47488
2022-07-31T12:25:55.298Z,49664
2022-07-31T12:26:58.201Z,50848
2022-07-31T12:28:01.968Z,52672
2022-07-31T12:29:04.873Z,55808
2022-07-31T12:30:07.566Z,59264
2022-07-31T12:31:10.489Z,70208
2022-07-31T12:32:13.455Z,68928
2022-07-31T12:33:16.362Z,81024
2022-07-31T12:34:19.546Z,76512
2022-07-31T12:35:21.633Z,87200
2022-07-31T12:36:24.265Z,121600
2022-07-31T12:37:26.896Z,110400
2022-07-31T12:38:41.220Z,129056
2022-07-31T12:39:54.900Z,119328
2022-07-31T12:41:04.576Z,125920
2022-07-31T12:42:07.201Z,110368
2022-07-31T12:43:09.886Z,95392
2022-07-31T12:44:13.499Z,103008
2022-07-31T12:45:24.150Z,104032
2022-07-31T12:46:26.789Z,109824
2022-07-31T12:47:34.945Z,93792
2022-07-31T12:48:41.176Z,92768
2022-07-31T12:49:50.037Z,104064
2022-07-31T12:50:56.357Z,105472
2022-07-31T12:51:59.596Z,102688
2022-07-31T12:53:01.956Z,96608
2022-07-31T12:54:04.706Z,103168
2022-07-31T12:55:07.693Z,113792
2022-07-31T12:56:09.553Z,115904
2022-07-31T12:57:13.274Z,108384
2022-07-31T12:58:16.299Z,99200
2022-07-31T12:59:18.377Z,94816
2022-07-31T13:00:21.340Z,106432
2022-07-31T13:01:24.725Z,42112
2022-07-31T13:02:28.019Z,88448
2022-07-31T13:03:39.175Z,105728
2022-07-31T13:04:49.766Z,106336
2022-07-31T13:05:52.686Z,88416
2022-07-31T13:06:55.042Z,96800
2022-07-31T13:07:57.893Z,107232
2022-07-31T13:09:01.091Z,99104
2022-07-31T13:10:15.279Z,101728
2022-07-31T13:11:45.879Z,56224
2022-07-31T13:13:00.340Z,67552
2022-07-31T13:14:03.393Z,75648
2022-07-31T13:15:11.247Z,59360
2022-07-31T13:16:14.440Z,68032
2022-07-31T13:17:17.922Z,112736
2022-07-31T13:18:20.752Z,33920
2022-07-31T13:19:23.100Z,29024
2022-07-31T13:20:25.798Z,28320
2022-07-31T13:21:28.848Z,58496
2022-07-31T13:22:52.328Z,56576
2022-07-31T13:23:56.176Z,81888
2022-07-31T13:24:59.229Z,88928
2022-07-31T13:26:01.878Z,77056
2022-07-31T13:27:04.807Z,33760
2022-07-31T13:28:09.324Z,28928
2022-07-31T13:29:11.949Z,28096
2022-07-31T13:30:15.244Z,31136
2022-07-31T13:31:17.338Z,30624
2022-07-31T13:32:20.535Z,28608
2022-07-31T13:33:27.086Z,90432
2022-07-31T13:34:29.440Z,93216
2022-07-31T13:35:32.346Z,93376
2022-07-31T13:36:39.113Z,58112
2022-07-31T13:37:42.379Z,41120
2022-07-31T13:38:45.590Z,42912
2022-07-31T13:39:47.958Z,36352
2022-07-31T13:40:50.909Z,31904
2022-07-31T13:41:53.494Z,27648
2022-07-31T13:42:56.488Z,24736
2022-07-31T13:43:59.978Z,24064
2022-07-31T13:45:07.759Z,28448
2022-07-31T13:46:11.384Z,56544
2022-07-31T13:47:14.284Z,49568
2022-07-31T13:48:16.967Z,43136
2022-07-31T13:49:19.930Z,39616
2022-07-31T13:50:23.379Z,37824
2022-07-31T13:51:28.805Z,33664
2022-07-31T13:52:31.857Z,46816
2022-07-31T13:53:34.474Z,29536
2022-07-31T13:54:37.342Z,30144
2022-07-31T13:55:39.764Z,33472
2022-07-31T13:56:43.555Z,66272
2022-07-31T13:57:46.107Z,63808
2022-07-31T13:58:49.250Z,64160
2022-07-31T13:59:52.666Z,25696
2022-07-31T14:00:55.593Z,23360
2022-07-31T14:02:05.783Z,21376
2022-07-31T14:03:07.863Z,20672
2022-07-31T14:04:14.057Z,22208
2022-07-31T14:05:29.575Z,37952
2022-07-31T14:06:43.475Z,25408
2022-07-31T14:07:51.665Z,24800
2022-07-31T14:09:51.278Z,22880
2022-07-31T14:10:58.527Z,24512
2022-07-31T14:12:05.720Z,39392
2022-07-31T14:13:16.479Z,28992
2022-07-31T14:14:23.070Z,29504
2022-07-31T14:15:29.961Z,55456
2022-07-31T14:16:33.651Z,46304
2022-07-31T14:17:36.147Z,34400
2022-07-31T14:18:38.847Z,56544
2022-07-31T14:19:43.860Z,43168
2022-07-31T14:20:47.571Z,56416
2022-07-31T14:21:56.563Z,31936
2022-07-31T14:23:00.113Z,56544
2022-07-31T14:24:03.293Z,54848
2022-07-31T14:25:06.137Z,51136
2022-07-31T14:26:08.756Z,49856
2022-07-31T14:27:10.772Z,42240
2022-07-31T14:28:13.187Z,40064
2022-07-31T14:29:16.109Z,34880
2022-07-31T14:30:19.955Z,29376
2022-07-31T14:31:23.816Z,25216
2022-07-31T14:32:26.469Z,24320